sensor_id;sensor_type;location;lat;lon;timestamp;P1;durP1;ratioP1;P2;durP2;ratioP2
9322;SDS011;4700;48.822;9.270;2022-10-10T00:00:38;8.20;;;6.50;;
9322;SDS011;4700;48.822;9.270;2022-10-10T00:03:25;8.17;;;7.23;;
9322;SDS011;4700;48.822;9.270;2022-10-10T00:06:11;7.27;;;5.87;;
9322;SDS011;4700;48.822;9.270;2022-10-10T00:08:59;8.10;;;7.40;;
9322;SDS011;4700;48.822;9.270;2022-10-10T00:11:45;7.10;;;6.40;;
9322;SDS011;4700;48.822;9.270;2022-10-10T00:14:31;10.40;;;7.83;;
9322;SDS011;4700;48.822;9.270;2022-10-10T00:17:17;7.43;;;6.70;;
9322;SDS011;4700;48.822;9.270;2022-10-10T00:20:03;10.20;;;7.00;;
9322;SDS011;4700;48.822;9.270;2022-10-10T00:22:50;7.73;;;5.70;;
9322;SDS011;4700;48.822;9.270;2022-10-10T00:25:37;7.80;;;6.20;;
9322;SDS011;4700;48.822;9.270;2022-10-10T00:28:26;7.37;;;6.60;;
9322;SDS011;4700;48.822;9.270;2022-10-10T00:31:12;7.37;;;6.47;;
9322;SDS011;4700;48.822;9.270;2022-10-10T00:33:58;8.87;;;6.77;;
9322;SDS011;4700;48.822;9.270;2022-10-10T00:36:44;7.50;;;6.53;;
9322;SDS011;4700;48.822;9.270;2022-10-10T00:39:30;6.87;;;6.17;;
9322;SDS011;4700;48.822;9.270;2022-10-10T00:42:17;10.43;;;6.97;;
9322;SDS011;4700;48.822;9.270;2022-10-10T00:45:20;10.03;;;7.57;;
9322;SDS011;4700;48.822;9.270;2022-10-10T00:48:13;7.33;;;6.67;;
9322;SDS011;4700;48.822;9.270;2022-10-10T00:51:01;8.00;;;6.23;;
9322;SDS011;4700;48.822;9.270;2022-10-10T00:53:50;7.70;;;6.90;;
9322;SDS011;4700;48.822;9.270;2022-10-10T00:56:38;6.43;;;5.80;;
9322;SDS011;4700;48.822;9.270;2022-10-10T00:59:30;10.23;;;7.40;;
9322;SDS011;4700;48.822;9.270;2022-10-10T01:02:17;8.17;;;6.50;;
9322;SDS011;4700;48.822;9.270;2022-10-10T01:05:03;7.80;;;7.10;;
9322;SDS011;4700;48.822;9.270;2022-10-10T01:07:50;7.70;;;7.00;;
9322;SDS011;4700;48.822;9.270;2022-10-10T01:10:38;7.90;;;6.60;;
9322;SDS011;4700;48.822;9.270;2022-10-10T01:13:33;13.40;;;8.63;;
9322;SDS011;4700;48.822;9.270;2022-10-10T01:16:26;6.20;;;5.40;;
9322;SDS011;4700;48.822;9.270;2022-10-10T01:19:25;7.50;;;6.77;;
9322;SDS011;4700;48.822;9.270;2022-10-10T01:22:31;7.40;;;6.70;;
9322;SDS011;4700;48.822;9.270;2022-10-10T01:25:26;7.33;;;6.73;;
9322;SDS011;4700;48.822;9.270;2022-10-10T01:28:22;7.13;;;6.43;;
9322;SDS011;4700;48.822;9.270;2022-10-10T01:31:13;7.10;;;6.40;;
9322;SDS011;4700;48.822;9.270;2022-10-10T01:34:06;9.03;;;6.87;;
9322;SDS011;4700;48.822;9.270;2022-10-10T01:37:00;9.87;;;7.50;;
9322;SDS011;4700;48.822;9.270;2022-10-10T01:39:53;6.50;;;5.90;;
9322;SDS011;4700;48.822;9.270;2022-10-10T01:42:46;9.30;;;6.47;;
9322;SDS011;4700;48.822;9.270;2022-10-10T01:45:36;9.20;;;7.37;;
9322;SDS011;4700;48.822;9.270;2022-10-10T01:48:27;8.73;;;6.60;;
9322;SDS011;4700;48.822;9.270;2022-10-10T01:51:19;7.60;;;6.80;;
9322;SDS011;4700;48.822;9.270;2022-10-10T01:54:17;6.43;;;5.87;;
9322;SDS011;4700;48.822;9.270;2022-10-10T01:57:18;6.63;;;5.80;;
9322;SDS011;4700;48.822;9.270;2022-10-10T02:00:08;8.97;;;6.80;;
9322;SDS011;4700;48.822;9.270;2022-10-10T02:02:57;6.50;;;5.90;;
9322;SDS011;4700;48.822;9.270;2022-10-10T02:05:57;7.47;;;6.70;;
9322;SDS011;4700;48.822;9.270;2022-10-10T02:08:48;7.90;;;7.20;;
9322;SDS011;4700;48.822;9.270;2022-10-10T02:11:38;7.17;;;6.53;;
9322;SDS011;4700;48.822;9.270;2022-10-10T02:14:25;7.13;;;5.70;;
9322;SDS011;4700;48.822;9.270;2022-10-10T02:17:14;6.07;;;5.50;;
9322;SDS011;4700;48.822;9.270;2022-10-10T02:20:02;7.23;;;6.60;;
9322;SDS011;4700;48.822;9.270;2022-10-10T02:22:50;6.73;;;6.13;;
9322;SDS011;4700;48.822;9.270;2022-10-10T02:25:38;8.70;;;7.57;;
9322;SDS011;4700;48.822;9.270;2022-10-10T02:28:27;8.60;;;6.90;;
9322;SDS011;4700;48.822;9.270;2022-10-10T02:31:18;12.50;;;7.80;;
9322;SDS011;4700;48.822;9.270;2022-10-10T02:34:09;8.57;;;6.80;;
9322;SDS011;4700;48.822;9.270;2022-10-10T02:36:59;8.20;;;7.40;;
9322;SDS011;4700;48.822;9.270;2022-10-10T02:39:30;7.13;;;6.53;;
9322;SDS011;4700;48.822;9.270;2022-10-10T02:42:19;7.53;;;6.77;;
9322;SDS011;4700;48.822;9.270;2022-10-10T02:45:06;9.00;;;7.13;;
9322;SDS011;4700;48.822;9.270;2022-10-10T02:47:52;7.10;;;6.40;;
9322;SDS011;4700;48.822;9.270;2022-10-10T02:50:38;7.80;;;6.80;;
9322;SDS011;4700;48.822;9.270;2022-10-10T02:53:26;8.37;;;6.93;;
9322;SDS011;4700;48.822;9.270;2022-10-10T02:56:11;8.00;;;7.27;;
9322;SDS011;4700;48.822;9.270;2022-10-10T02:58:57;9.57;;;8.70;;
9322;SDS011;4700;48.822;9.270;2022-10-10T03:01:43;8.23;;;6.87;;
9322;SDS011;4700;48.822;9.270;2022-10-10T03:04:29;12.17;;;8.40;;
9322;SDS011;4700;48.822;9.270;2022-10-10T03:07:15;13.90;;;7.23;;
9322;SDS011;4700;48.822;9.270;2022-10-10T03:10:06;9.00;;;7.10;;
9322;SDS011;4700;48.822;9.270;2022-10-10T03:12:52;8.10;;;7.30;;
9322;SDS011;4700;48.822;9.270;2022-10-10T03:15:40;8.07;;;7.00;;
9322;SDS011;4700;48.822;9.270;2022-10-10T03:18:26;11.70;;;7.77;;
9322;SDS011;4700;48.822;9.270;2022-10-10T03:21:11;14.53;;;8.07;;
9322;SDS011;4700;48.822;9.270;2022-10-10T03:23:57;9.90;;;8.17;;
9322;SDS011;4700;48.822;9.270;2022-10-10T03:26:44;10.27;;;7.93;;
9322;SDS011;4700;48.822;9.270;2022-10-10T03:29:30;9.40;;;7.93;;
9322;SDS011;4700;48.822;9.270;2022-10-10T03:32:16;7.37;;;6.67;;
9322;SDS011;4700;48.822;9.270;2022-10-10T03:35:03;8.67;;;7.13;;
9322;SDS011;4700;48.822;9.270;2022-10-10T03:37:48;8.90;;;7.27;;
9322;SDS011;4700;48.822;9.270;2022-10-10T03:40:37;8.57;;;7.70;;
9322;SDS011;4700;48.822;9.270;2022-10-10T03:43:25;8.13;;;7.33;;
9322;SDS011;4700;48.822;9.270;2022-10-10T03:46:10;9.00;;;8.10;;
9322;SDS011;4700;48.822;9.270;2022-10-10T03:48:56;8.47;;;7.57;;
9322;SDS011;4700;48.822;9.270;2022-10-10T03:51:42;9.27;;;7.93;;
9322;SDS011;4700;48.822;9.270;2022-10-10T03:54:28;10.93;;;8.87;;
9322;SDS011;4700;48.822;9.270;2022-10-10T03:57:14;9.07;;;8.13;;
9322;SDS011;4700;48.822;9.270;2022-10-10T04:00:01;12.97;;;9.60;;
9322;SDS011;4700;48.822;9.270;2022-10-10T04:02:47;9.30;;;8.40;;
9322;SDS011;4700;48.822;9.270;2022-10-10T04:05:33;9.67;;;7.47;;
9322;SDS011;4700;48.822;9.270;2022-10-10T04:08:20;9.87;;;8.87;;
9322;SDS011;4700;48.822;9.270;2022-10-10T04:11:07;13.00;;;8.30;;
9322;SDS011;4700;48.822;9.270;2022-10-10T04:13:53;14.00;;;9.03;;
9322;SDS011;4700;48.822;9.270;2022-10-10T04:16:40;12.50;;;8.00;;
9322;SDS011;4700;48.822;9.270;2022-10-10T04:19:26;9.23;;;8.10;;
9322;SDS011;4700;48.822;9.270;2022-10-10T04:22:11;12.13;;;8.63;;
9322;SDS011;4700;48.822;9.270;2022-10-10T04:24:59;9.10;;;8.03;;
9322;SDS011;4700;48.822;9.270;2022-10-10T04:27:44;9.60;;;8.63;;
9322;SDS011;4700;48.822;9.270;2022-10-10T04:30:31;10.40;;;8.67;;
9322;SDS011;4700;48.822;9.270;2022-10-10T04:33:20;9.30;;;8.40;;
9322;SDS011;4700;48.822;9.270;2022-10-10T04:36:05;10.67;;;8.50;;
9322;SDS011;4700;48.822;9.270;2022-10-10T04:38:51;9.50;;;8.53;;
9322;SDS011;4700;48.822;9.270;2022-10-10T04:41:37;7.80;;;6.70;;
9322;SDS011;4700;48.822;9.270;2022-10-10T04:44:23;12.17;;;8.20;;
9322;SDS011;4700;48.822;9.270;2022-10-10T04:47:09;10.73;;;8.80;;
9322;SDS011;4700;48.822;9.270;2022-10-10T04:49:57;10.20;;;7.90;;
9322;SDS011;4700;48.822;9.270;2022-10-10T04:52:42;11.03;;;8.43;;
9322;SDS011;4700;48.822;9.270;2022-10-10T04:55:28;9.50;;;7.97;;
9322;SDS011;4700;48.822;9.270;2022-10-10T04:58:14;10.40;;;8.30;;
9322;SDS011;4700;48.822;9.270;2022-10-10T05:01:00;12.50;;;7.53;;
9322;SDS011;4700;48.822;9.270;2022-10-10T05:03:50;13.53;;;9.33;;
9322;SDS011;4700;48.822;9.270;2022-10-10T05:06:37;13.67;;;8.63;;
9322;SDS011;4700;48.822;9.270;2022-10-10T05:09:23;8.23;;;7.37;;
9322;SDS011;4700;48.822;9.270;2022-10-10T05:12:09;10.87;;;9.50;;
9322;SDS011;4700;48.822;9.270;2022-10-10T05:14:55;10.23;;;7.60;;
9322;SDS011;4700;48.822;9.270;2022-10-10T05:17:41;8.47;;;6.93;;
9322;SDS011;4700;48.822;9.270;2022-10-10T05:20:28;14.87;;;9.60;;
9322;SDS011;4700;48.822;9.270;2022-10-10T05:23:15;13.07;;;8.60;;
9322;SDS011;4700;48.822;9.270;2022-10-10T05:26:01;8.63;;;7.83;;
9322;SDS011;4700;48.822;9.270;2022-10-10T05:28:49;9.67;;;8.73;;
9322;SDS011;4700;48.822;9.270;2022-10-10T05:31:35;10.20;;;7.67;;
9322;SDS011;4700;48.822;9.270;2022-10-10T05:34:23;8.83;;;8.10;;
9322;SDS011;4700;48.822;9.270;2022-10-10T05:37:09;8.60;;;7.80;;
9322;SDS011;4700;48.822;9.270;2022-10-10T05:39:57;11.63;;;8.40;;
9322;SDS011;4700;48.822;9.270;2022-10-10T05:42:42;12.10;;;8.70;;
9322;SDS011;4700;48.822;9.270;2022-10-10T05:45:28;8.43;;;7.63;;
9322;SDS011;4700;48.822;9.270;2022-10-10T05:48:14;10.30;;;7.90;;
9322;SDS011;4700;48.822;9.270;2022-10-10T05:50:59;9.40;;;8.50;;
9322;SDS011;4700;48.822;9.270;2022-10-10T05:53:46;9.43;;;8.43;;
9322;SDS011;4700;48.822;9.270;2022-10-10T05:56:33;8.93;;;8.03;;
9322;SDS011;4700;48.822;9.270;2022-10-10T05:59:19;9.10;;;8.20;;
9322;SDS011;4700;48.822;9.270;2022-10-10T06:02:05;9.87;;;8.10;;
9322;SDS011;4700;48.822;9.270;2022-10-10T06:04:50;12.93;;;10.07;;
9322;SDS011;4700;48.822;9.270;2022-10-10T06:07:36;10.73;;;9.63;;
9322;SDS011;4700;48.822;9.270;2022-10-10T06:10:22;8.23;;;7.50;;
9322;SDS011;4700;48.822;9.270;2022-10-10T06:13:10;13.70;;;9.27;;
9322;SDS011;4700;48.822;9.270;2022-10-10T06:15:56;14.00;;;9.10;;
9322;SDS011;4700;48.822;9.270;2022-10-10T06:18:42;10.53;;;9.27;;
9322;SDS011;4700;48.822;9.270;2022-10-10T06:21:28;11.30;;;8.73;;
9322;SDS011;4700;48.822;9.270;2022-10-10T06:24:13;12.13;;;9.30;;
9322;SDS011;4700;48.822;9.270;2022-10-10T06:26:59;12.40;;;8.83;;
9322;SDS011;4700;48.822;9.270;2022-10-10T06:29:46;12.57;;;8.43;;
9322;SDS011;4700;48.822;9.270;2022-10-10T06:32:32;9.90;;;8.73;;
9322;SDS011;4700;48.822;9.270;2022-10-10T06:35:18;15.27;;;10.87;;
9322;SDS011;4700;48.822;9.270;2022-10-10T06:38:06;13.90;;;10.40;;
9322;SDS011;4700;48.822;9.270;2022-10-10T06:40:52;9.63;;;8.10;;
9322;SDS011;4700;48.822;9.270;2022-10-10T06:43:38;11.60;;;9.03;;
9322;SDS011;4700;48.822;9.270;2022-10-10T06:46:26;9.70;;;7.63;;
9322;SDS011;4700;48.822;9.270;2022-10-10T06:49:12;7.83;;;7.03;;
9322;SDS011;4700;48.822;9.270;2022-10-10T06:51:59;11.73;;;7.57;;
9322;SDS011;4700;48.822;9.270;2022-10-10T06:54:45;10.93;;;8.80;;
9322;SDS011;4700;48.822;9.270;2022-10-10T06:57:30;12.50;;;8.00;;
9322;SDS011;4700;48.822;9.270;2022-10-10T07:00:16;9.60;;;8.70;;
9322;SDS011;4700;48.822;9.270;2022-10-10T07:03:04;11.53;;;8.90;;
9322;SDS011;4700;48.822;9.270;2022-10-10T07:05:49;13.40;;;8.83;;
9322;SDS011;4700;48.822;9.270;2022-10-10T07:08:36;9.53;;;7.97;;
9322;SDS011;4700;48.822;9.270;2022-10-10T07:11:29;13.53;;;8.37;;
9322;SDS011;4700;48.822;9.270;2022-10-10T07:14:15;12.07;;;7.93;;
9322;SDS011;4700;48.822;9.270;2022-10-10T07:17:00;9.53;;;8.37;;
9322;SDS011;4700;48.822;9.270;2022-10-10T07:19:47;11.77;;;8.63;;
9322;SDS011;4700;48.822;9.270;2022-10-10T07:22:33;12.70;;;8.43;;
9322;SDS011;4700;48.822;9.270;2022-10-10T07:25:19;11.60;;;8.97;;
9322;SDS011;4700;48.822;9.270;2022-10-10T07:28:05;13.03;;;10.57;;
9322;SDS011;4700;48.822;9.270;2022-10-10T07:30:56;23.67;;;10.57;;
9322;SDS011;4700;48.822;9.270;2022-10-10T07:33:44;14.03;;;10.03;;
9322;SDS011;4700;48.822;9.270;2022-10-10T07:36:33;10.03;;;7.20;;
9322;SDS011;4700;48.822;9.270;2022-10-10T07:39:18;9.37;;;7.90;;
9322;SDS011;4700;48.822;9.270;2022-10-10T07:42:04;8.30;;;7.60;;
9322;SDS011;4700;48.822;9.270;2022-10-10T07:44:50;12.83;;;8.50;;
9322;SDS011;4700;48.822;9.270;2022-10-10T07:47:35;9.63;;;8.57;;
9322;SDS011;4700;48.822;9.270;2022-10-10T07:50:21;9.23;;;8.33;;
9322;SDS011;4700;48.822;9.270;2022-10-10T07:53:10;13.63;;;9.40;;
9322;SDS011;4700;48.822;9.270;2022-10-10T07:55:57;12.77;;;7.30;;
9322;SDS011;4700;48.822;9.270;2022-10-10T07:58:43;10.70;;;8.63;;
9322;SDS011;4700;48.822;9.270;2022-10-10T08:01:28;10.50;;;7.67;;
9322;SDS011;4700;48.822;9.270;2022-10-10T08:04:17;28.60;;;11.40;;
9322;SDS011;4700;48.822;9.270;2022-10-10T08:07:04;11.33;;;9.10;;
9322;SDS011;4700;48.822;9.270;2022-10-10T08:09:57;12.13;;;8.83;;
9322;SDS011;4700;48.822;9.270;2022-10-10T08:12:45;13.10;;;9.17;;
9322;SDS011;4700;48.822;9.270;2022-10-10T08:15:31;12.90;;;8.03;;
9322;SDS011;4700;48.822;9.270;2022-10-10T08:18:17;8.87;;;7.43;;
9322;SDS011;4700;48.822;9.270;2022-10-10T08:21:07;18.77;;;10.70;;
9322;SDS011;4700;48.822;9.270;2022-10-10T08:23:54;16.53;;;8.43;;
9322;SDS011;4700;48.822;9.270;2022-10-10T08:26:42;18.47;;;11.27;;
9322;SDS011;4700;48.822;9.270;2022-10-10T08:29:28;26.30;;;12.17;;
9322;SDS011;4700;48.822;9.270;2022-10-10T08:32:15;35.27;;;13.57;;
9322;SDS011;4700;48.822;9.270;2022-10-10T08:35:01;35.93;;;10.90;;
9322;SDS011;4700;48.822;9.270;2022-10-10T08:37:47;14.67;;;7.10;;
9322;SDS011;4700;48.822;9.270;2022-10-10T08:40:33;44.00;;;15.70;;
9322;SDS011;4700;48.822;9.270;2022-10-10T08:43:27;35.30;;;10.30;;
9322;SDS011;4700;48.822;9.270;2022-10-10T08:46:17;20.67;;;10.27;;
9322;SDS011;4700;48.822;9.270;2022-10-10T08:49:15;22.23;;;10.17;;
9322;SDS011;4700;48.822;9.270;2022-10-10T08:52:05;38.03;;;11.60;;
9322;SDS011;4700;48.822;9.270;2022-10-10T08:54:58;31.03;;;11.90;;
9322;SDS011;4700;48.822;9.270;2022-10-10T08:57:52;35.40;;;12.87;;
9322;SDS011;4700;48.822;9.270;2022-10-10T09:00:45;32.23;;;12.00;;
9322;SDS011;4700;48.822;9.270;2022-10-10T09:03:34;9.60;;;5.60;;
9322;SDS011;4700;48.822;9.270;2022-10-10T09:06:27;10.30;;;6.97;;
9322;SDS011;4700;48.822;9.270;2022-10-10T09:09:24;14.43;;;7.17;;
9322;SDS011;4700;48.822;9.270;2022-10-10T09:12:19;24.00;;;9.30;;
9322;SDS011;4700;48.822;9.270;2022-10-10T09:15:12;29.93;;;8.43;;
9322;SDS011;4700;48.822;9.270;2022-10-10T09:18:07;19.30;;;8.23;;
9322;SDS011;4700;48.822;9.270;2022-10-10T09:21:02;18.77;;;7.13;;
9322;SDS011;4700;48.822;9.270;2022-10-10T09:23:58;15.80;;;7.80;;
9322;SDS011;4700;48.822;9.270;2022-10-10T09:26:49;20.47;;;8.87;;
9322;SDS011;4700;48.822;9.270;2022-10-10T09:29:41;15.10;;;6.80;;
9322;SDS011;4700;48.822;9.270;2022-10-10T09:32:32;15.33;;;7.03;;
9322;SDS011;4700;48.822;9.270;2022-10-10T09:35:23;5.80;;;4.63;;
9322;SDS011;4700;48.822;9.270;2022-10-10T09:38:16;11.53;;;7.93;;
9322;SDS011;4700;48.822;9.270;2022-10-10T09:41:13;14.87;;;7.80;;
9322;SDS011;4700;48.822;9.270;2022-10-10T09:44:04;22.47;;;9.80;;
9322;SDS011;4700;48.822;9.270;2022-10-10T09:46:50;26.97;;;10.53;;
9322;SDS011;4700;48.822;9.270;2022-10-10T09:49:37;17.93;;;8.10;;
9322;SDS011;4700;48.822;9.270;2022-10-10T09:52:24;13.80;;;6.50;;
9322;SDS011;4700;48.822;9.270;2022-10-10T09:55:17;15.93;;;8.93;;
9322;SDS011;4700;48.822;9.270;2022-10-10T09:58:13;9.43;;;5.97;;
9322;SDS011;4700;48.822;9.270;2022-10-10T10:01:11;8.47;;;5.80;;
9322;SDS011;4700;48.822;9.270;2022-10-10T10:04:06;18.20;;;8.70;;
9322;SDS011;4700;48.822;9.270;2022-10-10T10:07:03;28.53;;;8.43;;
9322;SDS011;4700;48.822;9.270;2022-10-10T10:09:55;13.93;;;5.73;;
9322;SDS011;4700;48.822;9.270;2022-10-10T10:12:42;11.47;;;5.00;;
9322;SDS011;4700;48.822;9.270;2022-10-10T10:15:31;26.93;;;8.20;;
9322;SDS011;4700;48.822;9.270;2022-10-10T10:18:20;110.43;;;18.93;;
9322;SDS011;4700;48.822;9.270;2022-10-10T10:21:14;5.63;;;4.73;;
9322;SDS011;4700;48.822;9.270;2022-10-10T10:24:09;7.27;;;4.13;;
9322;SDS011;4700;48.822;9.270;2022-10-10T10:27:07;6.90;;;4.80;;
9322;SDS011;4700;48.822;9.270;2022-10-10T10:29:55;11.63;;;5.70;;
9322;SDS011;4700;48.822;9.270;2022-10-10T10:32:46;14.17;;;5.70;;
9322;SDS011;4700;48.822;9.270;2022-10-10T10:35:44;6.77;;;5.00;;
9322;SDS011;4700;48.822;9.270;2022-10-10T10:38:37;6.37;;;4.17;;
9322;SDS011;4700;48.822;9.270;2022-10-10T10:41:16;4.47;;;4.07;;
9322;SDS011;4700;48.822;9.270;2022-10-10T10:44:14;7.27;;;5.97;;
9322;SDS011;4700;48.822;9.270;2022-10-10T10:47:10;9.23;;;5.50;;
9322;SDS011;4700;48.822;9.270;2022-10-10T10:50:29;8.17;;;4.23;;
9322;SDS011;4700;48.822;9.270;2022-10-10T10:53:25;5.63;;;4.13;;
9322;SDS011;4700;48.822;9.270;2022-10-10T10:56:22;8.50;;;4.17;;
9322;SDS011;4700;48.822;9.270;2022-10-10T10:59:20;12.53;;;6.20;;
9322;SDS011;4700;48.822;9.270;2022-10-10T11:02:19;6.40;;;4.57;;
9322;SDS011;4700;48.822;9.270;2022-10-10T11:05:31;5.57;;;3.70;;
9322;SDS011;4700;48.822;9.270;2022-10-10T11:11:37;5.47;;;3.80;;
9322;SDS011;4700;48.822;9.270;2022-10-10T11:14:39;5.40;;;3.17;;
9322;SDS011;4700;48.822;9.270;2022-10-10T11:17:35;9.63;;;3.90;;
9322;SDS011;4700;48.822;9.270;2022-10-10T11:20:24;6.53;;;3.80;;
9322;SDS011;4700;48.822;9.270;2022-10-10T11:23:16;4.23;;;3.73;;
9322;SDS011;4700;48.822;9.270;2022-10-10T11:26:06;5.23;;;3.43;;
9322;SDS011;4700;48.822;9.270;2022-10-10T11:29:02;7.50;;;3.83;;
9322;SDS011;4700;48.822;9.270;2022-10-10T11:31:51;8.00;;;4.63;;
9322;SDS011;4700;48.822;9.270;2022-10-10T11:34:41;18.87;;;6.47;;
9322;SDS011;4700;48.822;9.270;2022-10-10T11:37:31;9.93;;;5.17;;
9322;SDS011;4700;48.822;9.270;2022-10-10T11:40:24;5.17;;;3.00;;
9322;SDS011;4700;48.822;9.270;2022-10-10T11:43:18;8.30;;;5.23;;
9322;SDS011;4700;48.822;9.270;2022-10-10T11:46:12;8.23;;;4.57;;
9322;SDS011;4700;48.822;9.270;2022-10-10T11:49:03;6.90;;;4.43;;
9322;SDS011;4700;48.822;9.270;2022-10-10T11:52:10;8.47;;;5.07;;
9322;SDS011;4700;48.822;9.270;2022-10-10T11:55:03;7.23;;;3.50;;
9322;SDS011;4700;48.822;9.270;2022-10-10T11:57:57;5.40;;;3.43;;
9322;SDS011;4700;48.822;9.270;2022-10-10T12:01:03;5.83;;;3.90;;
9322;SDS011;4700;48.822;9.270;2022-10-10T12:03:55;3.73;;;3.43;;
9322;SDS011;4700;48.822;9.270;2022-10-10T12:06:44;9.70;;;4.80;;
9322;SDS011;4700;48.822;9.270;2022-10-10T12:09:36;4.33;;;3.40;;
9322;SDS011;4700;48.822;9.270;2022-10-10T12:12:26;8.60;;;3.97;;
9322;SDS011;4700;48.822;9.270;2022-10-10T12:15:16;14.53;;;4.67;;
9322;SDS011;4700;48.822;9.270;2022-10-10T12:18:21;12.23;;;4.43;;
9322;SDS011;4700;48.822;9.270;2022-10-10T12:21:09;8.57;;;3.90;;
9322;SDS011;4700;48.822;9.270;2022-10-10T12:24:01;14.17;;;5.90;;
9322;SDS011;4700;48.822;9.270;2022-10-10T12:27:18;7.17;;;4.40;;
9322;SDS011;4700;48.822;9.270;2022-10-10T12:30:18;10.20;;;3.80;;
9322;SDS011;4700;48.822;9.270;2022-10-10T12:33:17;6.73;;;4.23;;
9322;SDS011;4700;48.822;9.270;2022-10-10T12:39:36;8.87;;;3.97;;
9322;SDS011;4700;48.822;9.270;2022-10-10T12:42:26;4.57;;;3.67;;
9322;SDS011;4700;48.822;9.270;2022-10-10T12:48:54;11.43;;;4.10;;
9322;SDS011;4700;48.822;9.270;2022-10-10T12:51:44;10.93;;;3.93;;
9322;SDS011;4700;48.822;9.270;2022-10-10T12:54:42;10.43;;;5.40;;
9322;SDS011;4700;48.822;9.270;2022-10-10T12:57:31;6.80;;;3.30;;
9322;SDS011;4700;48.822;9.270;2022-10-10T13:00:20;4.80;;;3.10;;
9322;SDS011;4700;48.822;9.270;2022-10-10T13:03:09;9.03;;;4.43;;
9322;SDS011;4700;48.822;9.270;2022-10-10T13:06:03;9.00;;;4.30;;
9322;SDS011;4700;48.822;9.270;2022-10-10T13:08:51;6.13;;;3.77;;
9322;SDS011;4700;48.822;9.270;2022-10-10T13:11:48;8.90;;;4.97;;
9322;SDS011;4700;48.822;9.270;2022-10-10T13:14:37;8.77;;;4.97;;
9322;SDS011;4700;48.822;9.270;2022-10-10T13:17:26;9.63;;;5.27;;
9322;SDS011;4700;48.822;9.270;2022-10-10T13:20:24;8.57;;;4.60;;
9322;SDS011;4700;48.822;9.270;2022-10-10T13:23:15;8.67;;;4.03;;
9322;SDS011;4700;48.822;9.270;2022-10-10T13:26:01;11.93;;;4.23;;
9322;SDS011;4700;48.822;9.270;2022-10-10T13:28:47;8.00;;;4.43;;
9322;SDS011;4700;48.822;9.270;2022-10-10T13:31:33;32.60;;;8.30;;
9322;SDS011;4700;48.822;9.270;2022-10-10T13:34:20;5.73;;;3.77;;
9322;SDS011;4700;48.822;9.270;2022-10-10T13:37:10;12.83;;;4.83;;
9322;SDS011;4700;48.822;9.270;2022-10-10T13:39:59;8.10;;;4.90;;
9322;SDS011;4700;48.822;9.270;2022-10-10T13:42:46;17.60;;;7.20;;
9322;SDS011;4700;48.822;9.270;2022-10-10T13:45:36;5.07;;;4.50;;
9322;SDS011;4700;48.822;9.270;2022-10-10T13:48:36;10.47;;;3.60;;
9322;SDS011;4700;48.822;9.270;2022-10-10T13:51:38;10.80;;;4.20;;
9322;SDS011;4700;48.822;9.270;2022-10-10T13:54:37;10.00;;;3.50;;
9322;SDS011;4700;48.822;9.270;2022-10-10T13:57:26;7.57;;;4.63;;
9322;SDS011;4700;48.822;9.270;2022-10-10T14:00:14;11.00;;;3.63;;
9322;SDS011;4700;48.822;9.270;2022-10-10T14:03:10;6.53;;;3.20;;
9322;SDS011;4700;48.822;9.270;2022-10-10T14:05:59;6.20;;;3.80;;
9322;SDS011;4700;48.822;9.270;2022-10-10T14:08:45;8.73;;;3.90;;
9322;SDS011;4700;48.822;9.270;2022-10-10T14:11:35;5.77;;;3.20;;
9322;SDS011;4700;48.822;9.270;2022-10-10T14:14:24;5.07;;;3.27;;
9322;SDS011;4700;48.822;9.270;2022-10-10T14:17:16;6.67;;;3.43;;
9322;SDS011;4700;48.822;9.270;2022-10-10T14:20:04;3.30;;;2.77;;
9322;SDS011;4700;48.822;9.270;2022-10-10T14:22:53;11.90;;;3.53;;
9322;SDS011;4700;48.822;9.270;2022-10-10T14:25:40;9.07;;;3.07;;
9322;SDS011;4700;48.822;9.270;2022-10-10T14:28:29;7.07;;;2.80;;
9322;SDS011;4700;48.822;9.270;2022-10-10T14:31:18;6.87;;;3.67;;
9322;SDS011;4700;48.822;9.270;2022-10-10T14:34:04;8.73;;;3.47;;
9322;SDS011;4700;48.822;9.270;2022-10-10T14:36:50;6.27;;;3.83;;
9322;SDS011;4700;48.822;9.270;2022-10-10T14:39:38;7.00;;;4.03;;
9322;SDS011;4700;48.822;9.270;2022-10-10T14:42:24;9.40;;;3.60;;
9322;SDS011;4700;48.822;9.270;2022-10-10T14:45:11;8.93;;;3.40;;
9322;SDS011;4700;48.822;9.270;2022-10-10T14:47:59;6.77;;;3.50;;
9322;SDS011;4700;48.822;9.270;2022-10-10T14:50:46;7.10;;;3.53;;
9322;SDS011;4700;48.822;9.270;2022-10-10T14:53:33;9.83;;;3.40;;
9322;SDS011;4700;48.822;9.270;2022-10-10T14:56:19;8.10;;;3.27;;
9322;SDS011;4700;48.822;9.270;2022-10-10T14:59:05;10.10;;;3.67;;
9322;SDS011;4700;48.822;9.270;2022-10-10T15:01:55;5.90;;;3.70;;
9322;SDS011;4700;48.822;9.270;2022-10-10T15:04:42;6.73;;;3.27;;
9322;SDS011;4700;48.822;9.270;2022-10-10T15:07:28;8.13;;;3.10;;
9322;SDS011;4700;48.822;9.270;2022-10-10T15:10:14;8.13;;;2.97;;
9322;SDS011;4700;48.822;9.270;2022-10-10T15:13:00;6.60;;;3.50;;
9322;SDS011;4700;48.822;9.270;2022-10-10T15:15:46;11.40;;;4.07;;
9322;SDS011;4700;48.822;9.270;2022-10-10T15:18:32;3.43;;;3.13;;
9322;SDS011;4700;48.822;9.270;2022-10-10T15:21:19;3.30;;;2.63;;
9322;SDS011;4700;48.822;9.270;2022-10-10T15:24:04;7.80;;;3.23;;
9322;SDS011;4700;48.822;9.270;2022-10-10T15:26:51;9.63;;;3.50;;
9322;SDS011;4700;48.822;9.270;2022-10-10T15:29:37;7.33;;;3.03;;
9322;SDS011;4700;48.822;9.270;2022-10-10T15:32:22;4.20;;;2.40;;
9322;SDS011;4700;48.822;9.270;2022-10-10T15:35:10;2.77;;;2.47;;
9322;SDS011;4700;48.822;9.270;2022-10-10T15:38:02;7.97;;;3.33;;
9322;SDS011;4700;48.822;9.270;2022-10-10T15:40:54;4.10;;;3.20;;
9322;SDS011;4700;48.822;9.270;2022-10-10T15:43:42;5.90;;;3.80;;
9322;SDS011;4700;48.822;9.270;2022-10-10T15:46:29;6.20;;;3.40;;
9322;SDS011;4700;48.822;9.270;2022-10-10T15:49:15;4.30;;;2.70;;
9322;SDS011;4700;48.822;9.270;2022-10-10T15:52:01;5.07;;;3.37;;
9322;SDS011;4700;48.822;9.270;2022-10-10T15:54:49;11.03;;;3.50;;
9322;SDS011;4700;48.822;9.270;2022-10-10T15:57:34;4.73;;;2.97;;
9322;SDS011;4700;48.822;9.270;2022-10-10T16:00:20;10.70;;;3.77;;
9322;SDS011;4700;48.822;9.270;2022-10-10T16:03:05;3.80;;;3.07;;
9322;SDS011;4700;48.822;9.270;2022-10-10T16:05:51;4.10;;;3.70;;
9322;SDS011;4700;48.822;9.270;2022-10-10T16:08:37;4.37;;;3.10;;
9322;SDS011;4700;48.822;9.270;2022-10-10T16:11:24;7.43;;;3.70;;
9322;SDS011;4700;48.822;9.270;2022-10-10T16:14:10;5.37;;;3.23;;
9322;SDS011;4700;48.822;9.270;2022-10-10T16:16:56;5.70;;;2.90;;
9322;SDS011;4700;48.822;9.270;2022-10-10T16:19:42;6.40;;;3.00;;
9322;SDS011;4700;48.822;9.270;2022-10-10T16:22:28;11.40;;;5.50;;
9322;SDS011;4700;48.822;9.270;2022-10-10T16:25:14;6.00;;;2.87;;
9322;SDS011;4700;48.822;9.270;2022-10-10T16:28:03;9.83;;;3.00;;
9322;SDS011;4700;48.822;9.270;2022-10-10T16:30:48;5.63;;;3.70;;
9322;SDS011;4700;48.822;9.270;2022-10-10T16:33:36;6.90;;;3.03;;
9322;SDS011;4700;48.822;9.270;2022-10-10T16:36:23;4.67;;;2.50;;
9322;SDS011;4700;48.822;9.270;2022-10-10T16:39:13;7.93;;;3.57;;
9322;SDS011;4700;48.822;9.270;2022-10-10T16:41:58;12.60;;;3.73;;
9322;SDS011;4700;48.822;9.270;2022-10-10T16:44:47;5.43;;;2.97;;
9322;SDS011;4700;48.822;9.270;2022-10-10T16:47:33;3.93;;;3.43;;
9322;SDS011;4700;48.822;9.270;2022-10-10T16:50:18;6.87;;;3.17;;
9322;SDS011;4700;48.822;9.270;2022-10-10T16:53:04;4.20;;;3.20;;
9322;SDS011;4700;48.822;9.270;2022-10-10T16:55:50;7.20;;;4.10;;
9322;SDS011;4700;48.822;9.270;2022-10-10T16:58:36;9.97;;;4.27;;
9322;SDS011;4700;48.822;9.270;2022-10-10T17:01:23;6.87;;;4.77;;
9322;SDS011;4700;48.822;9.270;2022-10-10T17:04:09;11.57;;;4.77;;
9322;SDS011;4700;48.822;9.270;2022-10-10T17:06:55;5.67;;;3.93;;
9322;SDS011;4700;48.822;9.270;2022-10-10T17:09:41;4.10;;;2.90;;
9322;SDS011;4700;48.822;9.270;2022-10-10T17:12:26;7.13;;;3.60;;
9322;SDS011;4700;48.822;9.270;2022-10-10T17:15:12;8.83;;;4.33;;
9322;SDS011;4700;48.822;9.270;2022-10-10T17:17:59;7.07;;;5.33;;
9322;SDS011;4700;48.822;9.270;2022-10-10T17:20:45;8.10;;;4.40;;
9322;SDS011;4700;48.822;9.270;2022-10-10T17:23:31;6.10;;;4.53;;
9322;SDS011;4700;48.822;9.270;2022-10-10T17:26:18;6.47;;;5.17;;
9322;SDS011;4700;48.822;9.270;2022-10-10T17:29:05;5.97;;;3.83;;
9322;SDS011;4700;48.822;9.270;2022-10-10T17:31:50;5.17;;;3.90;;
9322;SDS011;4700;48.822;9.270;2022-10-10T17:34:37;5.27;;;4.37;;